createdAt,value
2023-01-21T00:03:13.763Z,12.98
2023-01-21T00:06:29.939Z,12.63
2023-01-21T00:09:45.955Z,14.85
2023-01-21T00:13:01.991Z,13.03
2023-01-21T00:16:19.099Z,13.85
2023-01-21T00:19:35.324Z,12.60
2023-01-21T00:22:51.114Z,14.68
2023-01-21T00:26:12.321Z,12.90
2023-01-21T00:29:28.550Z,11.63
2023-01-21T00:32:44.559Z,13.38
2023-01-21T00:36:10.943Z,11.30
2023-01-21T00:39:27.189Z,13.60
2023-01-21T00:48:01.255Z,14.15
2023-01-21T00:51:17.605Z,15.53
2023-01-21T00:54:34.021Z,15.80
2023-01-21T01:02:50.855Z,14.55
2023-01-21T01:06:13.767Z,13.08
2023-01-21T01:09:30.112Z,14.33
2023-01-21T01:12:46.122Z,15.15
2023-01-21T01:16:03.440Z,15.55
2023-01-21T01:19:20.925Z,13.15
2023-01-21T01:22:37.272Z,12.40
2023-01-21T01:26:01.414Z,13.55
2023-01-21T01:29:19.833Z,12.63
2023-01-21T01:32:35.910Z,10.95
2023-01-21T01:35:52.431Z,10.75
2023-01-21T01:39:08.623Z,11.10
2023-01-21T01:42:25.529Z,11.90
2023-01-21T01:45:42.899Z,12.05
2023-01-21T01:49:05.056Z,12.60
2023-01-21T01:52:23.847Z,11.70
2023-01-21T01:55:43.381Z,12.55
2023-01-21T01:59:00.874Z,10.53
2023-01-21T02:02:21.247Z,11.18
2023-01-21T02:05:39.278Z,9.88
2023-01-21T02:08:57.508Z,12.93
2023-01-21T02:12:16.117Z,10.68
2023-01-21T02:15:37.836Z,11.17
2023-01-21T02:18:58.267Z,9.58
2023-01-21T02:22:20.660Z,11.08
2023-01-21T02:26:11.831Z,9.40
2023-01-21T02:29:55.501Z,11.53
2023-01-21T02:34:01.351Z,9.83
2023-01-21T02:37:22.876Z,9.35
2023-01-21T02:40:43.745Z,10.63
2023-01-21T02:47:27.256Z,8.50
2023-01-21T02:50:48.757Z,9.50
2023-01-21T02:54:05.102Z,8.73
2023-01-21T02:57:25.585Z,8.98
2023-01-21T03:04:31.691Z,8.55
2023-01-21T03:07:52.768Z,9.33
2023-01-21T03:11:14.796Z,9.78
2023-01-21T03:17:53.100Z,10.28
2023-01-21T03:21:12.929Z,9.00
2023-01-21T03:24:29.962Z,8.33
2023-01-21T03:27:48.761Z,7.95
2023-01-21T03:34:23.409Z,7.83
2023-01-21T03:41:01.697Z,8.58
2023-01-21T03:47:37.469Z,8.28
2023-01-21T03:51:00.716Z,8.53
2023-01-21T03:54:16.983Z,7.28
2023-01-21T03:57:33.098Z,7.75
2023-01-21T04:00:50.141Z,6.03
2023-01-21T04:04:06.620Z,6.03
2023-01-21T04:07:22.908Z,7.25
2023-01-21T04:10:39.007Z,6.65
2023-01-21T04:13:55.175Z,7.05
2023-01-21T04:17:11.656Z,7.48
2023-01-21T04:20:27.979Z,6.83
2023-01-21T04:23:43.962Z,6.10
2023-01-21T04:27:00.372Z,6.60
2023-01-21T04:33:32.313Z,7.23
2023-01-21T04:36:48.370Z,6.23
2023-01-21T04:40:04.503Z,6.98
2023-01-21T04:43:20.591Z,5.95
2023-01-21T04:49:53.637Z,5.50
2023-01-21T04:53:09.774Z,6.20
2023-01-21T04:56:25.846Z,5.80
2023-01-21T04:59:41.788Z,5.23
2023-01-21T05:02:57.879Z,6.05
2023-01-21T05:06:14.671Z,5.25
2023-01-21T05:09:30.806Z,5.98
2023-01-21T05:12:46.777Z,4.95
2023-01-21T05:16:02.858Z,5.30
2023-01-21T05:19:19.153Z,5.13
2023-01-21T05:22:35.221Z,5.78
2023-01-21T05:25:51.438Z,4.85
2023-01-21T05:29:07.425Z,6.33
2023-01-21T05:32:23.090Z,5.48
2023-01-21T05:35:39.752Z,4.75
2023-01-21T05:38:55.975Z,7.10
2023-01-21T05:42:12.587Z,5.48
2023-01-21T05:48:44.235Z,5.08
2023-01-21T05:52:00.299Z,5.58
2023-01-21T05:55:17.620Z,5.83
2023-01-21T05:58:35.024Z,5.78
2023-01-21T06:01:51.108Z,4.33
2023-01-21T06:05:07.217Z,5.50
2023-01-21T06:08:24.153Z,4.35
2023-01-21T06:11:40.408Z,5.85
2023-01-21T06:14:56.643Z,4.65
2023-01-21T06:18:13.399Z,4.95
2023-01-21T06:21:29.413Z,5.03
2023-01-21T06:24:45.491Z,5.93
2023-01-21T06:28:03.758Z,4.85
2023-01-21T06:34:35.381Z,6.18
2023-01-21T06:37:51.677Z,4.58
2023-01-21T06:41:07.860Z,5.08
2023-01-21T06:44:24.453Z,6.08
2023-01-21T06:47:40.814Z,6.68
2023-01-21T06:50:57.228Z,5.58
2023-01-21T06:54:13.799Z,7.03
2023-01-21T06:57:29.932Z,8.25
2023-01-21T07:00:46.007Z,4.98
2023-01-21T07:04:02.394Z,6.40
2023-01-21T07:07:19.019Z,6.83
2023-01-21T07:10:35.507Z,8.83
2023-01-21T07:13:51.513Z,6.93
2023-01-21T07:17:07.651Z,6.78
2023-01-21T07:20:24.565Z,5.83
2023-01-21T07:23:40.757Z,7.85
2023-01-21T07:26:57.627Z,8.68
2023-01-21T07:30:16.708Z,7.28
2023-01-21T07:33:33.310Z,6.68
2023-01-21T07:36:49.611Z,5.60
2023-01-21T07:40:06.012Z,5.90
2023-01-21T07:43:22.451Z,5.30
2023-01-21T07:46:39.118Z,9.05
2023-01-21T07:49:56.172Z,16.10
2023-01-21T07:53:12.365Z,8.53
2023-01-21T07:56:28.624Z,4.95
2023-01-21T07:59:46.072Z,6.28
2023-01-21T08:03:02.884Z,4.63
2023-01-21T08:06:19.093Z,14.50
2023-01-21T08:09:35.743Z,7.48
2023-01-21T08:12:52.293Z,7.15
2023-01-21T08:19:24.320Z,9.73
2023-01-21T08:22:41.345Z,6.28
2023-01-21T08:26:01.290Z,10.75
2023-01-21T08:29:17.648Z,6.55
2023-01-21T08:32:38.231Z,5.75
2023-01-21T08:35:57.273Z,6.78
2023-01-21T08:39:17.145Z,6.48
2023-01-21T08:42:33.192Z,4.95
2023-01-21T08:49:05.938Z,6.20
2023-01-21T08:52:22.367Z,6.23
2023-01-21T08:55:38.573Z,4.88
2023-01-21T08:58:56.835Z,5.35
2023-01-21T09:02:13.571Z,8.40
2023-01-21T09:05:30.387Z,7.70
2023-01-21T09:08:46.481Z,5.15
2023-01-21T09:12:02.823Z,6.75
2023-01-21T09:15:20.121Z,6.60
2023-01-21T09:18:36.656Z,6.33
2023-01-21T09:21:53.127Z,8.03
2023-01-21T09:25:12.225Z,6.95
2023-01-21T09:28:29.183Z,6.75
2023-01-21T09:35:01.638Z,7.70
2023-01-21T09:38:18.182Z,8.23
2023-01-21T09:41:39.648Z,6.85
2023-01-21T09:44:59.516Z,7.65
2023-01-21T09:48:39.830Z,19.30
2023-01-21T09:52:12.209Z,10.60
2023-01-21T09:55:32.613Z,10.88
2023-01-21T09:58:53.364Z,10.70
2023-01-21T10:02:13.343Z,12.13
2023-01-21T10:05:58.799Z,11.48
2023-01-21T10:09:47.247Z,10.48
2023-01-21T10:13:19.688Z,11.03
2023-01-21T10:16:42.078Z,11.38
2023-01-21T10:20:03.287Z,14.40
2023-01-21T10:23:26.375Z,13.55
2023-01-21T10:26:44.383Z,13.48
2023-01-21T10:30:07.457Z,11.70
2023-01-21T10:33:28.218Z,14.00
2023-01-21T10:37:05.203Z,13.28
2023-01-21T10:40:28.570Z,13.93
2023-01-21T10:43:51.729Z,14.43
2023-01-21T10:47:15.330Z,15.25
2023-01-21T10:50:45.321Z,17.05
2023-01-21T10:54:06.426Z,14.85
2023-01-21T10:57:33.492Z,16.05
2023-01-21T11:00:53.282Z,29.75
2023-01-21T11:04:13.481Z,23.28
2023-01-21T11:07:31.057Z,18.30
2023-01-21T11:10:49.378Z,16.93
2023-01-21T11:14:05.926Z,20.35
2023-01-21T11:20:44.781Z,17.20
2023-01-21T11:24:06.638Z,17.65
2023-01-21T11:27:39.232Z,17.08
2023-01-21T11:30:56.082Z,21.85
2023-01-21T11:34:19.072Z,18.88
2023-01-21T11:37:37.912Z,17.80
2023-01-21T11:40:54.379Z,17.18
2023-01-21T11:44:27.580Z,19.35
2023-01-21T11:47:54.556Z,16.73
2023-01-21T11:51:19.068Z,15.33
2023-01-21T11:54:35.468Z,17.40
2023-01-21T11:57:56.035Z,18.15
2023-01-21T12:04:28.123Z,20.48
2023-01-21T12:07:48.197Z,20.28
2023-01-21T12:11:08.667Z,21.60
2023-01-21T12:14:30.344Z,21.95
2023-01-21T12:17:57.814Z,24.03
2023-01-21T12:21:18.963Z,21.00
2023-01-21T12:24:48.156Z,22.95
2023-01-21T12:28:36.377Z,21.43
2023-01-21T12:31:59.741Z,19.98
2023-01-21T12:35:22.205Z,22.10
2023-01-21T12:38:43.977Z,19.35
2023-01-21T12:42:10.045Z,18.25
2023-01-21T12:45:43.973Z,19.05
2023-01-21T12:49:04.920Z,20.75
2023-01-21T12:52:27.534Z,21.85
2023-01-21T12:55:55.748Z,21.20
2023-01-21T12:59:19.923Z,22.78
2023-01-21T13:05:58.592Z,23.18
2023-01-21T13:09:20.249Z,22.33
2023-01-21T13:12:39.232Z,22.35
2023-01-21T13:15:59.684Z,22.10
2023-01-21T13:19:18.858Z,22.68
2023-01-21T13:22:44.481Z,22.00
2023-01-21T13:26:05.693Z,23.02
2023-01-21T13:29:27.665Z,22.18
2023-01-21T13:32:52.433Z,22.58
2023-01-21T13:36:21.024Z,22.95
2023-01-21T13:39:47.669Z,24.48
2023-01-21T13:43:11.131Z,24.38
2023-01-21T13:46:41.459Z,22.50
2023-01-21T13:50:20.910Z,27.40
2023-01-21T13:53:47.519Z,27.70
2023-01-21T13:57:30.513Z,25.75
2023-01-21T14:06:25.218Z,29.73
2023-01-21T14:09:46.751Z,33.38
2023-01-21T14:13:34.345Z,30.43
2023-01-21T14:17:31.211Z,30.00
2023-01-21T14:21:21.661Z,30.58
2023-01-21T14:25:21.486Z,29.35
2023-01-21T14:28:43.327Z,31.93
2023-01-21T14:32:02.923Z,31.68
2023-01-21T14:35:28.313Z,29.00
2023-01-21T14:38:50.188Z,32.65
2023-01-21T14:42:18.146Z,32.48
2023-01-21T14:45:58.852Z,32.73
2023-01-21T14:49:17.269Z,37.63
2023-01-21T14:52:39.309Z,34.78
2023-01-21T14:56:15.920Z,41.55
2023-01-21T14:59:42.688Z,42.38
2023-01-21T15:03:05.173Z,41.75
2023-01-21T15:06:28.619Z,38.33
2023-01-21T15:09:49.527Z,38.68
2023-01-21T15:13:13.145Z,40.13
2023-01-21T15:19:47.571Z,86.95
2023-01-21T15:23:30.694Z,43.00
2023-01-21T15:26:47.743Z,40.60
2023-01-21T15:30:33.923Z,38.98
2023-01-21T15:33:57.908Z,39.28
2023-01-21T15:37:21.846Z,41.08
2023-01-21T15:40:43.616Z,40.45
2023-01-21T15:44:17.928Z,40.80
2023-01-21T15:50:57.003Z,38.43
2023-01-21T15:54:30.031Z,30.98
2023-01-21T15:57:56.450Z,33.13
2023-01-21T16:06:23.281Z,35.78
2023-01-21T16:09:49.825Z,36.35
2023-01-21T16:13:15.003Z,35.35
2023-01-21T16:16:42.305Z,34.98
2023-01-21T16:20:02.603Z,38.65
2023-01-21T16:23:22.055Z,36.33
2023-01-21T16:26:41.655Z,36.53
2023-01-21T16:30:02.596Z,36.73
2023-01-21T16:33:23.589Z,34.93
2023-01-21T16:36:46.551Z,42.40
2023-01-21T16:40:21.585Z,39.93
2023-01-21T16:43:39.542Z,37.93
2023-01-21T16:46:57.505Z,39.93
2023-01-21T16:50:23.301Z,43.75
2023-01-21T16:53:41.190Z,44.55
2023-01-21T16:57:01.380Z,43.60
2023-01-21T17:00:32.385Z,41.85
2023-01-21T17:03:49.540Z,40.58
2023-01-21T17:07:06.253Z,44.53
2023-01-21T17:10:29.727Z,44.00
2023-01-21T17:13:49.215Z,43.55
2023-01-21T17:17:09.874Z,42.53
2023-01-21T17:20:51.096Z,40.70
2023-01-21T17:24:11.818Z,44.03
2023-01-21T17:27:28.833Z,43.05
2023-01-21T17:30:45.649Z,44.40
2023-01-21T17:34:26.519Z,42.40
2023-01-21T17:37:59.266Z,42.55
2023-01-21T17:41:20.994Z,45.18
2023-01-21T17:44:37.461Z,42.08
2023-01-21T17:48:09.379Z,46.83
2023-01-21T17:51:21.950Z,49.33
2023-01-21T17:54:38.442Z,52.58
2023-01-21T17:57:55.089Z,46.95
2023-01-21T18:01:12.457Z,45.23
2023-01-21T18:04:29.368Z,45.98
2023-01-21T18:07:46.931Z,44.30
2023-01-21T18:11:03.201Z,45.63
2023-01-21T18:14:24.606Z,42.38
2023-01-21T18:17:41.766Z,47.45
2023-01-21T18:20:58.606Z,48.23
2023-01-21T18:24:17.100Z,47.20
2023-01-21T18:27:35.246Z,54.88
2023-01-21T18:30:53.814Z,53.83
2023-01-21T18:34:11.342Z,55.33
2023-01-21T18:37:30.558Z,52.05
2023-01-21T18:40:47.211Z,50.83
2023-01-21T18:44:03.460Z,54.35
2023-01-21T18:47:23.712Z,53.20
2023-01-21T18:50:40.127Z,55.43
2023-01-21T18:53:56.498Z,55.28
2023-01-21T18:57:16.376Z,61.43
2023-01-21T19:00:35.225Z,77.73
2023-01-21T19:03:51.699Z,120.38
2023-01-21T19:07:14.741Z,88.38
2023-01-21T19:10:31.260Z,81.80
2023-01-21T19:13:47.501Z,76.88
2023-01-21T19:17:04.103Z,72.83
2023-01-21T19:20:31.445Z,70.43
2023-01-21T19:23:48.282Z,72.30
2023-01-21T19:27:05.103Z,78.10
2023-01-21T19:30:33.757Z,88.60
2023-01-21T19:33:50.295Z,82.40
2023-01-21T19:37:08.406Z,80.50
2023-01-21T19:40:28.160Z,75.40
2023-01-21T19:43:44.509Z,74.18
2023-01-21T19:47:04.715Z,79.00
2023-01-21T19:50:28.570Z,98.50
2023-01-21T19:53:46.184Z,91.80
2023-01-21T19:57:02.556Z,82.68
2023-01-21T20:00:29.577Z,93.48
2023-01-21T20:03:59.357Z,94.73
2023-01-21T20:07:04.281Z,103.50
2023-01-21T20:10:28.243Z,118.55
2023-01-21T20:13:44.567Z,109.75
2023-01-21T20:17:03.686Z,102.88
2023-01-21T20:20:30.755Z,102.13
2023-01-21T20:23:47.255Z,103.13
2023-01-21T20:27:04.594Z,105.13
2023-01-21T20:30:29.510Z,101.60
2023-01-21T20:33:46.823Z,104.53
2023-01-21T20:37:03.765Z,100.08
2023-01-21T20:40:26.692Z,96.43
2023-01-21T20:43:43.081Z,97.18
2023-01-21T20:46:59.525Z,97.85
2023-01-21T20:50:27.029Z,93.15
2023-01-21T20:53:45.931Z,102.98
2023-01-21T20:57:02.102Z,97.10
2023-01-21T21:00:27.791Z,102.18
2023-01-21T21:03:44.048Z,95.70
2023-01-21T21:07:00.281Z,92.85
2023-01-21T21:10:26.805Z,93.05
2023-01-21T21:13:43.417Z,88.28
2023-01-21T21:17:01.049Z,89.25
2023-01-21T21:20:25.563Z,100.23
2023-01-21T21:23:42.178Z,84.67
2023-01-21T21:26:58.969Z,83.00
2023-01-21T21:30:21.784Z,81.20
2023-01-21T21:33:42.162Z,80.95
2023-01-21T21:36:58.566Z,80.75
2023-01-21T21:40:18.875Z,74.95
2023-01-21T21:43:37.951Z,80.20
2023-01-21T21:47:08.268Z,76.00
2023-01-21T21:50:24.923Z,78.93
2023-01-21T21:53:41.379Z,78.98
2023-01-21T21:56:57.610Z,73.98
2023-01-21T22:00:17.872Z,75.23
2023-01-21T22:03:34.261Z,71.20
2023-01-21T22:06:50.759Z,68.10
2023-01-21T22:10:07.054Z,67.78
2023-01-21T22:13:24.309Z,65.05
2023-01-21T22:16:41.193Z,70.40
2023-01-21T22:19:57.576Z,66.08
2023-01-21T22:23:13.906Z,66.53
2023-01-21T22:26:33.113Z,66.10
2023-01-21T22:29:49.733Z,63.78
2023-01-21T22:33:06.533Z,66.65
2023-01-21T22:36:26.327Z,64.35
2023-01-21T22:39:42.569Z,67.88
2023-01-21T22:43:00.850Z,67.83
2023-01-21T22:46:18.896Z,68.23
2023-01-21T22:49:36.295Z,72.95
2023-01-21T22:52:55.571Z,74.93
2023-01-21T22:56:13.928Z,77.05
2023-01-21T22:59:30.092Z,80.53
2023-01-21T23:02:46.215Z,76.68
2023-01-21T23:06:09.516Z,73.00
2023-01-21T23:09:26.129Z,76.53
2023-01-21T23:12:44.607Z,70.67
2023-01-21T23:16:01.542Z,74.95
2023-01-21T23:19:18.067Z,72.20
2023-01-21T23:22:34.241Z,66.45
2023-01-21T23:25:52.380Z,66.90
2023-01-21T23:29:08.551Z,71.00
2023-01-21T23:32:25.443Z,68.45
2023-01-21T23:35:43.010Z,67.73
2023-01-21T23:38:59.603Z,69.80
2023-01-21T23:42:15.938Z,72.10
2023-01-21T23:45:32.089Z,67.58
2023-01-21T23:48:48.891Z,66.48
2023-01-21T23:52:06.492Z,68.75
2023-01-21T23:55:22.743Z,69.15
2023-01-21T23:58:41.791Z,68.30
